sensor_id;sensor_type;location;lat;lon;timestamp;temperature;humidity
23475;DHT22;11910;52.086;21.066;2023-07-13T00:00:29;19.10;99.90
23475;DHT22;11910;52.086;21.066;2023-07-13T00:02:56;19.10;99.90
23475;DHT22;11910;52.086;21.066;2023-07-13T00:05:22;19.20;99.90
23475;DHT22;11910;52.086;21.066;2023-07-13T00:07:49;19.00;99.90
23475;DHT22;11910;52.086;21.066;2023-07-13T00:10:15;19.10;99.90
23475;DHT22;11910;52.086;21.066;2023-07-13T00:12:40;19.00;99.90
23475;DHT22;11910;52.086;21.066;2023-07-13T00:15:12;19.10;99.90
23475;DHT22;11910;52.086;21.066;2023-07-13T00:17:39;19.10;99.90
23475;DHT22;11910;52.086;21.066;2023-07-13T00:20:06;19.10;99.90
23475;DHT22;11910;52.086;21.066;2023-07-13T00:22:32;19.10;99.90
23475;DHT22;11910;52.086;21.066;2023-07-13T00:24:58;19.10;99.90
23475;DHT22;11910;52.086;21.066;2023-07-13T00:27:24;19.00;99.90
23475;DHT22;11910;52.086;21.066;2023-07-13T00:29:52;19.10;99.90
23475;DHT22;11910;52.086;21.066;2023-07-13T00:32:18;19.10;99.90
23475;DHT22;11910;52.086;21.066;2023-07-13T00:34:44;19.10;99.90
23475;DHT22;11910;52.086;21.066;2023-07-13T00:37:09;19.10;99.90
23475;DHT22;11910;52.086;21.066;2023-07-13T00:39:37;19.10;99.90
23475;DHT22;11910;52.086;21.066;2023-07-13T00:42:03;19.10;99.90
23475;DHT22;11910;52.086;21.066;2023-07-13T00:44:29;19.10;99.90
23475;DHT22;11910;52.086;21.066;2023-07-13T00:46:55;19.10;99.90
23475;DHT22;11910;52.086;21.066;2023-07-13T00:49:25;19.10;99.90
23475;DHT22;11910;52.086;21.066;2023-07-13T00:51:55;19.10;99.90
23475;DHT22;11910;52.086;21.066;2023-07-13T00:54:25;19.10;99.90
23475;DHT22;11910;52.086;21.066;2023-07-13T00:56:53;19.00;99.90
23475;DHT22;11910;52.086;21.066;2023-07-13T00:59:21;19.00;99.90
23475;DHT22;11910;52.086;21.066;2023-07-13T01:01:48;18.90;99.90
23475;DHT22;11910;52.086;21.066;2023-07-13T01:04:14;18.90;99.90
23475;DHT22;11910;52.086;21.066;2023-07-13T01:06:40;18.90;99.90
23475;DHT22;11910;52.086;21.066;2023-07-13T01:09:08;18.90;99.90
23475;DHT22;11910;52.086;21.066;2023-07-13T01:11:33;18.80;99.90
23475;DHT22;11910;52.086;21.066;2023-07-13T01:14:00;18.90;99.90
23475;DHT22;11910;52.086;21.066;2023-07-13T01:16:33;18.90;99.90
23475;DHT22;11910;52.086;21.066;2023-07-13T01:19:00;18.90;99.90
23475;DHT22;11910;52.086;21.066;2023-07-13T01:21:28;18.90;99.90
23475;DHT22;11910;52.086;21.066;2023-07-13T01:23:55;18.90;99.90
23475;DHT22;11910;52.086;21.066;2023-07-13T01:26:21;18.90;99.90
23475;DHT22;11910;52.086;21.066;2023-07-13T01:28:47;18.90;99.90
23475;DHT22;11910;52.086;21.066;2023-07-13T01:31:13;18.80;99.90
23475;DHT22;11910;52.086;21.066;2023-07-13T01:33:40;18.80;99.90
23475;DHT22;11910;52.086;21.066;2023-07-13T01:36:07;18.80;99.90
23475;DHT22;11910;52.086;21.066;2023-07-13T01:38:34;18.80;99.90
23475;DHT22;11910;52.086;21.066;2023-07-13T01:41:00;18.80;99.90
23475;DHT22;11910;52.086;21.066;2023-07-13T01:43:25;18.80;99.90
23475;DHT22;11910;52.086;21.066;2023-07-13T01:45:51;18.80;99.90
23475;DHT22;11910;52.086;21.066;2023-07-13T01:48:17;18.80;99.90
23475;DHT22;11910;52.086;21.066;2023-07-13T01:50:42;18.70;99.90
23475;DHT22;11910;52.086;21.066;2023-07-13T01:53:09;18.70;99.90
23475;DHT22;11910;52.086;21.066;2023-07-13T01:55:35;18.60;99.90
23475;DHT22;11910;52.086;21.066;2023-07-13T01:58:01;18.70;99.90
23475;DHT22;11910;52.086;21.066;2023-07-13T02:00:26;18.60;99.90
23475;DHT22;11910;52.086;21.066;2023-07-13T02:02:52;18.70;99.90
23475;DHT22;11910;52.086;21.066;2023-07-13T02:05:18;18.70;99.90
23475;DHT22;11910;52.086;21.066;2023-07-13T02:07:44;18.70;99.90
23475;DHT22;11910;52.086;21.066;2023-07-13T02:10:10;18.70;99.90
23475;DHT22;11910;52.086;21.066;2023-07-13T02:12:36;18.70;99.90
23475;DHT22;11910;52.086;21.066;2023-07-13T02:15:03;18.70;99.90
23475;DHT22;11910;52.086;21.066;2023-07-13T02:17:28;18.70;99.90
23475;DHT22;11910;52.086;21.066;2023-07-13T02:19:54;18.70;99.90
23475;DHT22;11910;52.086;21.066;2023-07-13T02:22:21;18.70;99.90
23475;DHT22;11910;52.086;21.066;2023-07-13T02:24:47;18.80;99.90
23475;DHT22;11910;52.086;21.066;2023-07-13T02:27:12;18.70;99.90
23475;DHT22;11910;52.086;21.066;2023-07-13T02:29:38;18.60;99.90
23475;DHT22;11910;52.086;21.066;2023-07-13T02:32:04;18.50;99.90
23475;DHT22;11910;52.086;21.066;2023-07-13T02:34:30;18.50;99.90
23475;DHT22;11910;52.086;21.066;2023-07-13T02:36:55;18.50;99.90
23475;DHT22;11910;52.086;21.066;2023-07-13T02:39:21;18.50;99.90
23475;DHT22;11910;52.086;21.066;2023-07-13T02:41:47;18.50;99.90
23475;DHT22;11910;52.086;21.066;2023-07-13T02:44:13;18.50;99.90
23475;DHT22;11910;52.086;21.066;2023-07-13T02:46:39;18.50;99.90
23475;DHT22;11910;52.086;21.066;2023-07-13T02:49:05;18.50;99.90
23475;DHT22;11910;52.086;21.066;2023-07-13T02:51:31;18.50;99.90
23475;DHT22;11910;52.086;21.066;2023-07-13T02:54:03;18.40;99.90
23475;DHT22;11910;52.086;21.066;2023-07-13T02:56:30;18.40;99.90
23475;DHT22;11910;52.086;21.066;2023-07-13T02:58:57;18.50;99.90
23475;DHT22;11910;52.086;21.066;2023-07-13T03:01:23;18.50;99.90
23475;DHT22;11910;52.086;21.066;2023-07-13T03:03:49;18.40;99.90
23475;DHT22;11910;52.086;21.066;2023-07-13T03:06:16;18.40;99.90
23475;DHT22;11910;52.086;21.066;2023-07-13T03:08:42;18.40;99.90
23475;DHT22;11910;52.086;21.066;2023-07-13T03:11:11;18.40;99.90
23475;DHT22;11910;52.086;21.066;2023-07-13T03:13:38;18.40;99.90
23475;DHT22;11910;52.086;21.066;2023-07-13T03:16:04;18.40;99.90
23475;DHT22;11910;52.086;21.066;2023-07-13T03:18:30;18.40;99.90
23475;DHT22;11910;52.086;21.066;2023-07-13T03:20:56;18.40;99.90
23475;DHT22;11910;52.086;21.066;2023-07-13T03:23:22;18.30;99.90
23475;DHT22;11910;52.086;21.066;2023-07-13T03:25:48;18.30;99.90
23475;DHT22;11910;52.086;21.066;2023-07-13T03:28:14;18.30;99.90
23475;DHT22;11910;52.086;21.066;2023-07-13T03:30:41;18.30;99.90
23475;DHT22;11910;52.086;21.066;2023-07-13T03:33:07;18.30;99.90
23475;DHT22;11910;52.086;21.066;2023-07-13T03:35:34;18.30;99.90
23475;DHT22;11910;52.086;21.066;2023-07-13T03:37:59;18.30;99.90
23475;DHT22;11910;52.086;21.066;2023-07-13T03:40:27;18.30;99.90
23475;DHT22;11910;52.086;21.066;2023-07-13T03:42:53;18.40;99.90
23475;DHT22;11910;52.086;21.066;2023-07-13T03:45:19;18.40;99.90
23475;DHT22;11910;52.086;21.066;2023-07-13T03:47:45;18.40;99.90
23475;DHT22;11910;52.086;21.066;2023-07-13T03:50:11;18.40;99.90
23475;DHT22;11910;52.086;21.066;2023-07-13T03:52:37;18.40;99.90
23475;DHT22;11910;52.086;21.066;2023-07-13T03:55:03;18.40;99.90
23475;DHT22;11910;52.086;21.066;2023-07-13T03:57:29;18.50;99.90
23475;DHT22;11910;52.086;21.066;2023-07-13T03:59:55;18.60;99.90
23475;DHT22;11910;52.086;21.066;2023-07-13T04:02:20;18.60;99.90
23475;DHT22;11910;52.086;21.066;2023-07-13T04:04:46;18.70;99.90
23475;DHT22;11910;52.086;21.066;2023-07-13T04:07:12;18.70;99.90
23475;DHT22;11910;52.086;21.066;2023-07-13T04:09:37;18.80;99.90
23475;DHT22;11910;52.086;21.066;2023-07-13T04:12:04;18.90;99.90
23475;DHT22;11910;52.086;21.066;2023-07-13T04:14:30;18.90;99.90
23475;DHT22;11910;52.086;21.066;2023-07-13T04:16:56;19.00;99.90
23475;DHT22;11910;52.086;21.066;2023-07-13T04:19:21;19.10;99.90
23475;DHT22;11910;52.086;21.066;2023-07-13T04:21:47;19.10;99.90
23475;DHT22;11910;52.086;21.066;2023-07-13T04:24:13;19.30;99.90
23475;DHT22;11910;52.086;21.066;2023-07-13T04:26:39;19.40;99.90
23475;DHT22;11910;52.086;21.066;2023-07-13T04:29:06;19.50;99.90
23475;DHT22;11910;52.086;21.066;2023-07-13T04:31:32;19.60;99.90
23475;DHT22;11910;52.086;21.066;2023-07-13T04:33:58;19.70;99.90
23475;DHT22;11910;52.086;21.066;2023-07-13T04:36:24;19.80;99.90
23475;DHT22;11910;52.086;21.066;2023-07-13T04:38:52;19.90;99.90
23475;DHT22;11910;52.086;21.066;2023-07-13T04:41:20;20.00;99.90
23475;DHT22;11910;52.086;21.066;2023-07-13T04:43:46;20.10;99.90
23475;DHT22;11910;52.086;21.066;2023-07-13T04:46:13;20.20;99.90
23475;DHT22;11910;52.086;21.066;2023-07-13T04:48:40;20.30;99.90
23475;DHT22;11910;52.086;21.066;2023-07-13T04:51:06;20.40;99.90
23475;DHT22;11910;52.086;21.066;2023-07-13T04:53:32;20.40;99.90
23475;DHT22;11910;52.086;21.066;2023-07-13T04:55:59;20.50;99.90
23475;DHT22;11910;52.086;21.066;2023-07-13T04:58:25;20.60;99.90
23475;DHT22;11910;52.086;21.066;2023-07-13T05:00:51;20.60;99.90
23475;DHT22;11910;52.086;21.066;2023-07-13T05:03:17;20.70;99.90
23475;DHT22;11910;52.086;21.066;2023-07-13T05:05:43;20.80;99.90
23475;DHT22;11910;52.086;21.066;2023-07-13T05:08:08;20.80;99.90
23475;DHT22;11910;52.086;21.066;2023-07-13T05:10:35;20.90;99.90
23475;DHT22;11910;52.086;21.066;2023-07-13T05:13:01;20.90;99.90
23475;DHT22;11910;52.086;21.066;2023-07-13T05:15:26;21.00;99.90
23475;DHT22;11910;52.086;21.066;2023-07-13T05:17:52;21.00;99.90
23475;DHT22;11910;52.086;21.066;2023-07-13T05:20:18;21.00;99.90
23475;DHT22;11910;52.086;21.066;2023-07-13T05:22:44;21.10;99.90
23475;DHT22;11910;52.086;21.066;2023-07-13T05:25:12;21.10;99.90
23475;DHT22;11910;52.086;21.066;2023-07-13T05:27:38;21.10;99.90
23475;DHT22;11910;52.086;21.066;2023-07-13T05:30:04;21.20;99.90
23475;DHT22;11910;52.086;21.066;2023-07-13T05:32:30;21.20;99.90
23475;DHT22;11910;52.086;21.066;2023-07-13T05:34:56;21.30;99.90
23475;DHT22;11910;52.086;21.066;2023-07-13T05:37:21;21.30;99.90
23475;DHT22;11910;52.086;21.066;2023-07-13T05:39:47;21.40;99.90
23475;DHT22;11910;52.086;21.066;2023-07-13T05:42:13;21.40;99.90
23475;DHT22;11910;52.086;21.066;2023-07-13T05:44:38;21.50;99.90
23475;DHT22;11910;52.086;21.066;2023-07-13T05:47:07;21.60;99.90
23475;DHT22;11910;52.086;21.066;2023-07-13T05:49:33;21.60;99.90
23475;DHT22;11910;52.086;21.066;2023-07-13T05:51:58;21.70;99.90
23475;DHT22;11910;52.086;21.066;2023-07-13T05:54:24;21.80;99.90
23475;DHT22;11910;52.086;21.066;2023-07-13T05:56:49;21.90;99.90
23475;DHT22;11910;52.086;21.066;2023-07-13T05:59:15;21.90;99.90
23475;DHT22;11910;52.086;21.066;2023-07-13T06:01:41;22.00;99.90
23475;DHT22;11910;52.086;21.066;2023-07-13T06:04:07;22.10;99.90
23475;DHT22;11910;52.086;21.066;2023-07-13T06:06:33;22.10;99.90
23475;DHT22;11910;52.086;21.066;2023-07-13T06:08:58;22.20;99.90
23475;DHT22;11910;52.086;21.066;2023-07-13T06:11:26;22.30;99.90
23475;DHT22;11910;52.086;21.066;2023-07-13T06:13:53;22.30;99.90
23475;DHT22;11910;52.086;21.066;2023-07-13T06:16:19;22.40;99.90
23475;DHT22;11910;52.086;21.066;2023-07-13T06:18:45;22.40;99.90
23475;DHT22;11910;52.086;21.066;2023-07-13T06:21:15;22.50;99.90
23475;DHT22;11910;52.086;21.066;2023-07-13T06:23:41;22.60;99.90
23475;DHT22;11910;52.086;21.066;2023-07-13T06:26:07;22.60;99.90
23475;DHT22;11910;52.086;21.066;2023-07-13T06:28:34;22.70;99.90
23475;DHT22;11910;52.086;21.066;2023-07-13T06:31:00;22.70;99.90
23475;DHT22;11910;52.086;21.066;2023-07-13T06:33:26;22.80;99.90
23475;DHT22;11910;52.086;21.066;2023-07-13T06:35:52;22.80;99.90
23475;DHT22;11910;52.086;21.066;2023-07-13T06:38:20;22.90;99.90
23475;DHT22;11910;52.086;21.066;2023-07-13T06:40:45;22.90;99.90
23475;DHT22;11910;52.086;21.066;2023-07-13T06:43:11;23.00;99.90
23475;DHT22;11910;52.086;21.066;2023-07-13T06:45:45;23.10;99.90
23475;DHT22;11910;52.086;21.066;2023-07-13T06:48:13;23.10;99.90
23475;DHT22;11910;52.086;21.066;2023-07-13T06:50:39;23.20;99.90
23475;DHT22;11910;52.086;21.066;2023-07-13T06:53:04;23.20;99.90
23475;DHT22;11910;52.086;21.066;2023-07-13T06:55:30;23.20;99.90
23475;DHT22;11910;52.086;21.066;2023-07-13T06:57:55;23.30;99.90
23475;DHT22;11910;52.086;21.066;2023-07-13T07:00:21;23.40;99.90
23475;DHT22;11910;52.086;21.066;2023-07-13T07:02:47;23.40;99.90
23475;DHT22;11910;52.086;21.066;2023-07-13T07:05:13;23.40;99.90
23475;DHT22;11910;52.086;21.066;2023-07-13T07:07:38;23.40;99.90
23475;DHT22;11910;52.086;21.066;2023-07-13T07:10:05;23.40;99.90
23475;DHT22;11910;52.086;21.066;2023-07-13T07:12:30;23.50;99.90
23475;DHT22;11910;52.086;21.066;2023-07-13T07:14:56;23.50;99.90
23475;DHT22;11910;52.086;21.066;2023-07-13T07:17:24;23.50;99.90
23475;DHT22;11910;52.086;21.066;2023-07-13T07:19:52;23.60;99.90
23475;DHT22;11910;52.086;21.066;2023-07-13T07:22:19;23.60;99.90
23475;DHT22;11910;52.086;21.066;2023-07-13T07:24:45;23.60;97.70
23475;DHT22;11910;52.086;21.066;2023-07-13T07:27:11;23.70;98.30
23475;DHT22;11910;52.086;21.066;2023-07-13T07:29:37;23.80;98.00
23475;DHT22;11910;52.086;21.066;2023-07-13T07:32:03;23.90;98.40
23475;DHT22;11910;52.086;21.066;2023-07-13T07:34:30;23.90;96.50
23475;DHT22;11910;52.086;21.066;2023-07-13T07:36:59;24.00;95.60
23475;DHT22;11910;52.086;21.066;2023-07-13T07:39:26;24.10;96.10
23475;DHT22;11910;52.086;21.066;2023-07-13T07:41:51;24.20;94.40
23475;DHT22;11910;52.086;21.066;2023-07-13T07:44:17;24.30;93.60
23475;DHT22;11910;52.086;21.066;2023-07-13T07:46:43;24.30;93.20
23475;DHT22;11910;52.086;21.066;2023-07-13T07:49:08;24.40;94.40
23475;DHT22;11910;52.086;21.066;2023-07-13T07:51:34;24.50;93.90
23475;DHT22;11910;52.086;21.066;2023-07-13T07:54:00;24.70;92.70
23475;DHT22;11910;52.086;21.066;2023-07-13T07:56:26;24.80;92.50
23475;DHT22;11910;52.086;21.066;2023-07-13T07:58:51;25.00;92.10
23475;DHT22;11910;52.086;21.066;2023-07-13T08:01:17;25.10;91.00
23475;DHT22;11910;52.086;21.066;2023-07-13T08:03:42;25.20;90.70
23475;DHT22;11910;52.086;21.066;2023-07-13T08:06:11;25.40;90.20
23475;DHT22;11910;52.086;21.066;2023-07-13T08:08:36;25.40;88.00
23475;DHT22;11910;52.086;21.066;2023-07-13T08:11:07;25.50;89.50
23475;DHT22;11910;52.086;21.066;2023-07-13T08:13:32;25.60;88.60
23475;DHT22;11910;52.086;21.066;2023-07-13T08:15:58;25.70;89.30
23475;DHT22;11910;52.086;21.066;2023-07-13T08:18:24;25.70;88.80
23475;DHT22;11910;52.086;21.066;2023-07-13T08:20:50;25.80;89.90
23475;DHT22;11910;52.086;21.066;2023-07-13T08:23:16;25.90;90.40
23475;DHT22;11910;52.086;21.066;2023-07-13T08:25:42;25.90;90.20
23475;DHT22;11910;52.086;21.066;2023-07-13T08:28:08;26.00;90.60
23475;DHT22;11910;52.086;21.066;2023-07-13T08:30:34;26.10;90.70
23475;DHT22;11910;52.086;21.066;2023-07-13T08:32:59;26.20;89.70
23475;DHT22;11910;52.086;21.066;2023-07-13T08:35:25;26.20;90.20
23475;DHT22;11910;52.086;21.066;2023-07-13T08:37:51;26.40;88.70
23475;DHT22;11910;52.086;21.066;2023-07-13T08:40:18;26.30;88.90
23475;DHT22;11910;52.086;21.066;2023-07-13T08:42:58;26.50;90.00
23475;DHT22;11910;52.086;21.066;2023-07-13T08:45:26;26.50;88.80
23475;DHT22;11910;52.086;21.066;2023-07-13T08:47:59;26.60;88.80
23475;DHT22;11910;52.086;21.066;2023-07-13T08:50:38;26.80;89.50
23475;DHT22;11910;52.086;21.066;2023-07-13T08:53:11;27.00;88.60
23475;DHT22;11910;52.086;21.066;2023-07-13T08:55:38;27.10;86.70
23475;DHT22;11910;52.086;21.066;2023-07-13T08:58:14;27.40;84.10
23475;DHT22;11910;52.086;21.066;2023-07-13T09:03:47;27.70;82.30
23475;DHT22;11910;52.086;21.066;2023-07-13T09:06:14;27.80;82.20
23475;DHT22;11910;52.086;21.066;2023-07-13T09:09:02;27.90;82.70
23475;DHT22;11910;52.086;21.066;2023-07-13T09:14:14;28.00;81.20
23475;DHT22;11910;52.086;21.066;2023-07-13T09:16:46;28.00;82.70
23475;DHT22;11910;52.086;21.066;2023-07-13T09:19:23;28.10;82.60
23475;DHT22;11910;52.086;21.066;2023-07-13T09:21:51;28.00;82.90
23475;DHT22;11910;52.086;21.066;2023-07-13T09:26:59;28.40;81.90
23475;DHT22;11910;52.086;21.066;2023-07-13T09:29:34;28.70;80.20
23475;DHT22;11910;52.086;21.066;2023-07-13T09:32:03;28.80;79.60
23475;DHT22;11910;52.086;21.066;2023-07-13T09:34:32;29.00;80.40
23475;DHT22;11910;52.086;21.066;2023-07-13T09:36:57;29.20;78.30
23475;DHT22;11910;52.086;21.066;2023-07-13T09:39:39;29.40;78.20
23475;DHT22;11910;52.086;21.066;2023-07-13T09:42:16;29.40;77.10
23475;DHT22;11910;52.086;21.066;2023-07-13T09:44:56;29.40;77.30
23475;DHT22;11910;52.086;21.066;2023-07-13T09:47:30;29.30;78.30
23475;DHT22;11910;52.086;21.066;2023-07-13T09:52:39;30.20;75.70
23475;DHT22;11910;52.086;21.066;2023-07-13T09:57:54;31.30;71.40
23475;DHT22;11910;52.086;21.066;2023-07-13T10:00:30;32.00;70.90
23475;DHT22;11910;52.086;21.066;2023-07-13T10:03:21;32.40;69.00
23475;DHT22;11910;52.086;21.066;2023-07-13T10:05:49;33.00;67.40
23475;DHT22;11910;52.086;21.066;2023-07-13T10:08:29;33.30;66.00
23475;DHT22;11910;52.086;21.066;2023-07-13T10:11:00;32.90;64.90
23475;DHT22;11910;52.086;21.066;2023-07-13T10:13:33;32.50;66.50
23475;DHT22;11910;52.086;21.066;2023-07-13T10:16:01;32.00;67.90
23475;DHT22;11910;52.086;21.066;2023-07-13T10:18:28;31.60;67.60
23475;DHT22;11910;52.086;21.066;2023-07-13T10:21:09;31.20;69.10
23475;DHT22;11910;52.086;21.066;2023-07-13T10:23:36;30.90;73.30
23475;DHT22;11910;52.086;21.066;2023-07-13T10:26:02;30.40;69.70
23475;DHT22;11910;52.086;21.066;2023-07-13T10:28:36;30.10;70.40
23475;DHT22;11910;52.086;21.066;2023-07-13T10:31:07;29.80;73.30
23475;DHT22;11910;52.086;21.066;2023-07-13T10:33:35;29.50;72.80
23475;DHT22;11910;52.086;21.066;2023-07-13T10:36:15;29.20;70.60
23475;DHT22;11910;52.086;21.066;2023-07-13T10:38:43;28.80;71.90
23475;DHT22;11910;52.086;21.066;2023-07-13T10:41:14;28.40;74.30
23475;DHT22;11910;52.086;21.066;2023-07-13T10:43:46;28.10;74.80
23475;DHT22;11910;52.086;21.066;2023-07-13T10:46:17;27.70;77.00
23475;DHT22;11910;52.086;21.066;2023-07-13T10:48:48;27.40;78.30
23475;DHT22;11910;52.086;21.066;2023-07-13T10:51:17;27.00;78.30
23475;DHT22;11910;52.086;21.066;2023-07-13T10:53:43;26.70;79.50
23475;DHT22;11910;52.086;21.066;2023-07-13T10:56:29;26.40;80.50
23475;DHT22;11910;52.086;21.066;2023-07-13T10:59:09;26.00;82.80
23475;DHT22;11910;52.086;21.066;2023-07-13T11:01:54;25.70;83.70
23475;DHT22;11910;52.086;21.066;2023-07-13T11:04:21;25.50;84.80
23475;DHT22;11910;52.086;21.066;2023-07-13T11:06:52;25.30;85.20
23475;DHT22;11910;52.086;21.066;2023-07-13T11:09:38;25.00;90.70
23475;DHT22;11910;52.086;21.066;2023-07-13T11:12:26;24.80;93.00
23475;DHT22;11910;52.086;21.066;2023-07-13T11:17:34;24.00;98.00
23475;DHT22;11910;52.086;21.066;2023-07-13T11:20:20;23.70;99.90
23475;DHT22;11910;52.086;21.066;2023-07-13T11:22:47;23.40;99.90
23475;DHT22;11910;52.086;21.066;2023-07-13T11:25:33;23.10;99.90
23475;DHT22;11910;52.086;21.066;2023-07-13T12:52:35;20.80;99.90
23475;DHT22;11910;52.086;21.066;2023-07-13T12:55:16;21.60;99.90
23475;DHT22;11910;52.086;21.066;2023-07-13T12:57:51;21.60;99.90
23475;DHT22;11910;52.086;21.066;2023-07-13T13:00:35;21.60;99.90
23475;DHT22;11910;52.086;21.066;2023-07-13T13:03:05;21.60;99.90
23475;DHT22;11910;52.086;21.066;2023-07-13T13:07:25;21.60;99.90
23475;DHT22;11910;52.086;21.066;2023-07-13T13:09:51;21.60;99.90
23475;DHT22;11910;52.086;21.066;2023-07-13T13:12:18;21.60;99.90
23475;DHT22;11910;52.086;21.066;2023-07-13T13:14:43;21.60;99.90
23475;DHT22;11910;52.086;21.066;2023-07-13T13:17:20;21.60;99.90
23475;DHT22;11910;52.086;21.066;2023-07-13T13:19:46;21.60;99.90
23475;DHT22;11910;52.086;21.066;2023-07-13T13:22:12;21.60;99.90
23475;DHT22;11910;52.086;21.066;2023-07-13T13:24:39;21.60;99.90
23475;DHT22;11910;52.086;21.066;2023-07-13T13:27:05;21.60;99.90
23475;DHT22;11910;52.086;21.066;2023-07-13T13:29:31;21.50;99.90
23475;DHT22;11910;52.086;21.066;2023-07-13T13:31:58;21.50;99.90
23475;DHT22;11910;52.086;21.066;2023-07-13T13:34:24;21.40;99.90
23475;DHT22;11910;52.086;21.066;2023-07-13T13:36:50;21.40;99.90
23475;DHT22;11910;52.086;21.066;2023-07-13T13:39:34;21.40;99.90
23475;DHT22;11910;52.086;21.066;2023-07-13T13:42:00;21.30;99.90
23475;DHT22;11910;52.086;21.066;2023-07-13T13:44:26;21.30;99.90
23475;DHT22;11910;52.086;21.066;2023-07-13T13:46:53;21.20;99.90
23475;DHT22;11910;52.086;21.066;2023-07-13T13:49:24;21.30;99.90
23475;DHT22;11910;52.086;21.066;2023-07-13T13:51:51;21.30;99.90
23475;DHT22;11910;52.086;21.066;2023-07-13T13:54:17;21.30;99.90
23475;DHT22;11910;52.086;21.066;2023-07-13T13:56:45;21.30;99.90
23475;DHT22;11910;52.086;21.066;2023-07-13T13:59:11;21.30;99.90
23475;DHT22;11910;52.086;21.066;2023-07-13T14:01:37;21.30;99.90
23475;DHT22;11910;52.086;21.066;2023-07-13T14:04:04;21.30;99.90
23475;DHT22;11910;52.086;21.066;2023-07-13T14:06:32;21.30;99.90
23475;DHT22;11910;52.086;21.066;2023-07-13T14:08:58;21.30;99.90
23475;DHT22;11910;52.086;21.066;2023-07-13T14:11:24;21.30;99.90
23475;DHT22;11910;52.086;21.066;2023-07-13T14:13:56;21.30;99.90
23475;DHT22;11910;52.086;21.066;2023-07-13T14:16:31;21.30;99.90
23475;DHT22;11910;52.086;21.066;2023-07-13T14:18:58;21.30;99.90
23475;DHT22;11910;52.086;21.066;2023-07-13T14:21:27;21.20;99.90
23475;DHT22;11910;52.086;21.066;2023-07-13T14:23:53;21.30;99.90
23475;DHT22;11910;52.086;21.066;2023-07-13T14:26:22;21.30;99.90
23475;DHT22;11910;52.086;21.066;2023-07-13T14:28:51;21.30;99.90
23475;DHT22;11910;52.086;21.066;2023-07-13T14:31:17;21.30;99.90
23475;DHT22;11910;52.086;21.066;2023-07-13T14:33:46;21.40;99.90
23475;DHT22;11910;52.086;21.066;2023-07-13T14:36:33;21.40;99.90
23475;DHT22;11910;52.086;21.066;2023-07-13T14:39:05;21.40;99.90
23475;DHT22;11910;52.086;21.066;2023-07-13T14:41:31;21.30;99.90
23475;DHT22;11910;52.086;21.066;2023-07-13T14:43:57;21.40;99.90
23475;DHT22;11910;52.086;21.066;2023-07-13T14:46:31;21.30;99.90
23475;DHT22;11910;52.086;21.066;2023-07-13T14:51:26;21.40;99.90
23475;DHT22;11910;52.086;21.066;2023-07-13T14:53:52;21.40;99.90
23475;DHT22;11910;52.086;21.066;2023-07-13T14:56:18;21.30;99.90
23475;DHT22;11910;52.086;21.066;2023-07-13T14:58:43;21.30;99.90
23475;DHT22;11910;52.086;21.066;2023-07-13T15:01:13;21.30;99.90
23475;DHT22;11910;52.086;21.066;2023-07-13T15:03:44;21.30;99.90
23475;DHT22;11910;52.086;21.066;2023-07-13T15:06:12;21.30;99.90
23475;DHT22;11910;52.086;21.066;2023-07-13T15:08:38;21.20;99.90
23475;DHT22;11910;52.086;21.066;2023-07-13T15:11:09;21.20;99.90
23475;DHT22;11910;52.086;21.066;2023-07-13T15:13:39;21.20;99.90
23475;DHT22;11910;52.086;21.066;2023-07-13T15:16:16;21.20;99.90
23475;DHT22;11910;52.086;21.066;2023-07-13T15:18:44;21.20;99.90
23475;DHT22;11910;52.086;21.066;2023-07-13T15:21:11;21.30;99.90
23475;DHT22;11910;52.086;21.066;2023-07-13T15:23:40;21.20;99.90
23475;DHT22;11910;52.086;21.066;2023-07-13T15:26:11;21.20;99.90
23475;DHT22;11910;52.086;21.066;2023-07-13T15:28:38;21.20;99.90
23475;DHT22;11910;52.086;21.066;2023-07-13T15:31:24;21.20;99.90
23475;DHT22;11910;52.086;21.066;2023-07-13T15:33:52;21.20;99.90
23475;DHT22;11910;52.086;21.066;2023-07-13T15:36:21;21.20;99.90
23475;DHT22;11910;52.086;21.066;2023-07-13T15:38:48;21.20;99.90
23475;DHT22;11910;52.086;21.066;2023-07-13T15:43:49;21.20;99.90
23475;DHT22;11910;52.086;21.066;2023-07-13T15:46:19;21.20;99.90
23475;DHT22;11910;52.086;21.066;2023-07-13T15:48:46;21.20;99.90
23475;DHT22;11910;52.086;21.066;2023-07-13T15:51:23;21.20;99.90
23475;DHT22;11910;52.086;21.066;2023-07-13T15:53:50;21.20;99.90
23475;DHT22;11910;52.086;21.066;2023-07-13T15:56:23;21.10;99.90
23475;DHT22;11910;52.086;21.066;2023-07-13T15:58:50;21.10;99.90
23475;DHT22;11910;52.086;21.066;2023-07-13T16:01:16;21.10;99.90
23475;DHT22;11910;52.086;21.066;2023-07-13T16:03:42;21.10;99.90
23475;DHT22;11910;52.086;21.066;2023-07-13T16:06:19;21.00;99.90
23475;DHT22;11910;52.086;21.066;2023-07-13T16:08:48;21.00;99.90
23475;DHT22;11910;52.086;21.066;2023-07-13T16:11:24;21.00;99.90
23475;DHT22;11910;52.086;21.066;2023-07-13T16:13:50;20.90;99.90
23475;DHT22;11910;52.086;21.066;2023-07-13T16:16:22;21.00;99.90
23475;DHT22;11910;52.086;21.066;2023-07-13T16:18:54;21.00;99.90
23475;DHT22;11910;52.086;21.066;2023-07-13T16:21:22;21.00;99.90
23475;DHT22;11910;52.086;21.066;2023-07-13T16:23:49;20.90;99.90
23475;DHT22;11910;52.086;21.066;2023-07-13T16:26:24;20.90;99.90
23475;DHT22;11910;52.086;21.066;2023-07-13T16:28:50;20.90;99.90
23475;DHT22;11910;52.086;21.066;2023-07-13T16:31:29;20.90;99.90
23475;DHT22;11910;52.086;21.066;2023-07-13T16:33:56;20.90;99.90
23475;DHT22;11910;52.086;21.066;2023-07-13T16:36:24;20.90;99.90
23475;DHT22;11910;52.086;21.066;2023-07-13T16:38:50;20.90;99.90
23475;DHT22;11910;52.086;21.066;2023-07-13T16:41:16;20.90;99.90
23475;DHT22;11910;52.086;21.066;2023-07-13T16:43:41;20.90;99.90
23475;DHT22;11910;52.086;21.066;2023-07-13T16:46:10;20.90;99.90
23475;DHT22;11910;52.086;21.066;2023-07-13T16:48:40;21.00;99.90
23475;DHT22;11910;52.086;21.066;2023-07-13T16:51:06;20.90;99.90
23475;DHT22;11910;52.086;21.066;2023-07-13T16:53:32;21.00;99.90
23475;DHT22;11910;52.086;21.066;2023-07-13T16:56:02;21.00;99.90
23475;DHT22;11910;52.086;21.066;2023-07-13T16:58:31;21.00;99.90
23475;DHT22;11910;52.086;21.066;2023-07-13T17:00:58;21.00;99.90
23475;DHT22;11910;52.086;21.066;2023-07-13T17:03:24;21.00;99.90
23475;DHT22;11910;52.086;21.066;2023-07-13T17:05:52;21.00;99.90
23475;DHT22;11910;52.086;21.066;2023-07-13T17:08:20;21.00;99.90